sensor_id;sensor_type;location;lat;lon;timestamp;P1;durP1;ratioP1;P2;durP2;ratioP2
52031;SDS011;38044;45.148;39.604;2023-06-19T00:00:07;24.65;;;19.95;;
52031;SDS011;38044;45.148;39.604;2023-06-19T00:02:41;25.00;;;19.38;;
52031;SDS011;38044;45.148;39.604;2023-06-19T00:05:08;28.02;;;19.58;;
52031;SDS011;38044;45.148;39.604;2023-06-19T00:07:37;26.80;;;21.57;;
52031;SDS011;38044;45.148;39.604;2023-06-19T00:10:04;37.70;;;26.63;;
52031;SDS011;38044;45.148;39.604;2023-06-19T00:12:31;35.10;;;26.75;;
52031;SDS011;38044;45.148;39.604;2023-06-19T00:14:57;43.38;;;30.95;;
52031;SDS011;38044;45.148;39.604;2023-06-19T00:17:23;39.05;;;28.77;;
52031;SDS011;38044;45.148;39.604;2023-06-19T00:19:51;47.83;;;34.58;;
52031;SDS011;38044;45.148;39.604;2023-06-19T00:22:17;44.95;;;30.83;;
52031;SDS011;38044;45.148;39.604;2023-06-19T00:24:43;37.97;;;26.80;;
52031;SDS011;38044;45.148;39.604;2023-06-19T00:27:09;36.13;;;26.38;;
52031;SDS011;38044;45.148;39.604;2023-06-19T00:29:35;39.05;;;28.35;;
52031;SDS011;38044;45.148;39.604;2023-06-19T00:32:01;40.67;;;30.43;;
52031;SDS011;38044;45.148;39.604;2023-06-19T00:34:28;39.67;;;28.10;;
52031;SDS011;38044;45.148;39.604;2023-06-19T00:36:54;35.88;;;28.65;;
52031;SDS011;38044;45.148;39.604;2023-06-19T00:39:23;40.40;;;29.98;;
52031;SDS011;38044;45.148;39.604;2023-06-19T00:41:54;37.03;;;29.20;;
52031;SDS011;38044;45.148;39.604;2023-06-19T00:44:20;36.03;;;29.05;;
52031;SDS011;38044;45.148;39.604;2023-06-19T00:46:47;37.47;;;27.27;;
52031;SDS011;38044;45.148;39.604;2023-06-19T00:49:19;39.40;;;28.70;;
52031;SDS011;38044;45.148;39.604;2023-06-19T00:51:45;41.55;;;30.33;;
52031;SDS011;38044;45.148;39.604;2023-06-19T00:54:11;40.17;;;30.67;;
52031;SDS011;38044;45.148;39.604;2023-06-19T00:56:37;41.15;;;30.55;;
52031;SDS011;38044;45.148;39.604;2023-06-19T00:59:11;41.53;;;30.10;;
52031;SDS011;38044;45.148;39.604;2023-06-19T01:01:41;55.40;;;33.88;;
52031;SDS011;38044;45.148;39.604;2023-06-19T01:04:07;51.70;;;35.92;;
52031;SDS011;38044;45.148;39.604;2023-06-19T01:06:40;53.72;;;37.22;;
52031;SDS011;38044;45.148;39.604;2023-06-19T01:09:13;43.00;;;30.03;;
52031;SDS011;38044;45.148;39.604;2023-06-19T01:11:43;46.03;;;30.33;;
52031;SDS011;38044;45.148;39.604;2023-06-19T01:14:18;42.60;;;28.70;;
52031;SDS011;38044;45.148;39.604;2023-06-19T01:16:51;29.35;;;19.88;;
52031;SDS011;38044;45.148;39.604;2023-06-19T01:19:20;27.60;;;20.80;;
52031;SDS011;38044;45.148;39.604;2023-06-19T01:21:47;26.40;;;18.45;;
52031;SDS011;38044;45.148;39.604;2023-06-19T01:24:13;23.20;;;17.63;;
52031;SDS011;38044;45.148;39.604;2023-06-19T01:26:40;25.73;;;18.73;;
52031;SDS011;38044;45.148;39.604;2023-06-19T01:29:07;25.85;;;18.20;;
52031;SDS011;38044;45.148;39.604;2023-06-19T01:31:37;24.73;;;17.57;;
52031;SDS011;38044;45.148;39.604;2023-06-19T01:34:19;25.23;;;18.67;;
52031;SDS011;38044;45.148;39.604;2023-06-19T01:36:47;26.98;;;19.75;;
52031;SDS011;38044;45.148;39.604;2023-06-19T01:39:16;22.67;;;17.33;;
52031;SDS011;38044;45.148;39.604;2023-06-19T01:41:45;21.40;;;16.83;;
52031;SDS011;38044;45.148;39.604;2023-06-19T01:44:11;25.20;;;17.87;;
52031;SDS011;38044;45.148;39.604;2023-06-19T01:46:38;23.00;;;17.20;;
52031;SDS011;38044;45.148;39.604;2023-06-19T01:49:09;23.60;;;18.80;;
52031;SDS011;38044;45.148;39.604;2023-06-19T01:51:35;22.75;;;17.30;;
52031;SDS011;38044;45.148;39.604;2023-06-19T01:54:02;23.52;;;16.55;;
52031;SDS011;38044;45.148;39.604;2023-06-19T01:56:29;20.37;;;16.30;;
52031;SDS011;38044;45.148;39.604;2023-06-19T01:58:55;26.53;;;17.53;;
52031;SDS011;38044;45.148;39.604;2023-06-19T02:01:21;22.50;;;16.17;;
52031;SDS011;38044;45.148;39.604;2023-06-19T02:03:47;23.47;;;17.87;;
52031;SDS011;38044;45.148;39.604;2023-06-19T02:06:13;28.90;;;20.80;;
52031;SDS011;38044;45.148;39.604;2023-06-19T02:08:39;26.05;;;20.52;;
52031;SDS011;38044;45.148;39.604;2023-06-19T02:11:06;20.92;;;16.35;;
52031;SDS011;38044;45.148;39.604;2023-06-19T02:13:33;24.27;;;19.02;;
52031;SDS011;38044;45.148;39.604;2023-06-19T02:15:59;24.25;;;18.08;;
52031;SDS011;38044;45.148;39.604;2023-06-19T02:18:25;24.70;;;18.00;;
52031;SDS011;38044;45.148;39.604;2023-06-19T02:20:51;24.63;;;16.98;;
52031;SDS011;38044;45.148;39.604;2023-06-19T02:23:16;20.90;;;16.77;;
52031;SDS011;38044;45.148;39.604;2023-06-19T02:25:42;26.88;;;18.10;;
52031;SDS011;38044;45.148;39.604;2023-06-19T02:28:08;22.37;;;17.10;;
52031;SDS011;38044;45.148;39.604;2023-06-19T02:30:34;25.90;;;17.85;;
52031;SDS011;38044;45.148;39.604;2023-06-19T02:33:00;23.63;;;16.60;;
52031;SDS011;38044;45.148;39.604;2023-06-19T02:35:26;21.03;;;15.73;;
52031;SDS011;38044;45.148;39.604;2023-06-19T02:37:52;21.53;;;16.17;;
52031;SDS011;38044;45.148;39.604;2023-06-19T02:40:17;20.63;;;15.80;;
52031;SDS011;38044;45.148;39.604;2023-06-19T02:42:44;19.13;;;16.02;;
52031;SDS011;38044;45.148;39.604;2023-06-19T02:45:09;22.75;;;16.45;;
52031;SDS011;38044;45.148;39.604;2023-06-19T02:47:35;23.00;;;17.05;;
52031;SDS011;38044;45.148;39.604;2023-06-19T02:50:02;21.13;;;17.17;;
52031;SDS011;38044;45.148;39.604;2023-06-19T02:52:29;24.33;;;17.40;;
52031;SDS011;38044;45.148;39.604;2023-06-19T02:54:55;27.73;;;17.17;;
52031;SDS011;38044;45.148;39.604;2023-06-19T02:57:21;19.53;;;15.87;;
52031;SDS011;38044;45.148;39.604;2023-06-19T02:59:46;23.20;;;16.75;;
52031;SDS011;38044;45.148;39.604;2023-06-19T03:02:12;27.52;;;18.08;;
52031;SDS011;38044;45.148;39.604;2023-06-19T03:04:39;24.63;;;16.40;;
52031;SDS011;38044;45.148;39.604;2023-06-19T03:07:06;20.98;;;16.42;;
52031;SDS011;38044;45.148;39.604;2023-06-19T03:09:32;20.17;;;14.60;;
52031;SDS011;38044;45.148;39.604;2023-06-19T03:11:58;20.70;;;14.87;;
52031;SDS011;38044;45.148;39.604;2023-06-19T03:14:23;19.25;;;13.95;;
52031;SDS011;38044;45.148;39.604;2023-06-19T03:16:49;19.35;;;13.73;;
52031;SDS011;38044;45.148;39.604;2023-06-19T03:19:15;19.48;;;12.75;;
52031;SDS011;38044;45.148;39.604;2023-06-19T03:21:41;17.65;;;11.95;;
52031;SDS011;38044;45.148;39.604;2023-06-19T03:24:07;14.32;;;11.05;;
52031;SDS011;38044;45.148;39.604;2023-06-19T03:26:33;16.02;;;11.75;;
52031;SDS011;38044;45.148;39.604;2023-06-19T03:28:58;15.23;;;10.43;;
52031;SDS011;38044;45.148;39.604;2023-06-19T03:31:24;13.83;;;9.73;;
52031;SDS011;38044;45.148;39.604;2023-06-19T03:33:50;13.05;;;8.80;;
52031;SDS011;38044;45.148;39.604;2023-06-19T03:36:16;11.77;;;8.43;;
52031;SDS011;38044;45.148;39.604;2023-06-19T03:38:42;13.13;;;9.00;;
52031;SDS011;38044;45.148;39.604;2023-06-19T03:41:08;14.07;;;9.03;;
52031;SDS011;38044;45.148;39.604;2023-06-19T03:43:33;13.90;;;9.10;;
52031;SDS011;38044;45.148;39.604;2023-06-19T03:45:59;13.32;;;9.18;;
52031;SDS011;38044;45.148;39.604;2023-06-19T03:48:25;13.93;;;9.40;;
52031;SDS011;38044;45.148;39.604;2023-06-19T03:50:51;14.32;;;9.60;;
52031;SDS011;38044;45.148;39.604;2023-06-19T03:53:17;16.88;;;9.60;;
52031;SDS011;38044;45.148;39.604;2023-06-19T03:55:43;15.80;;;10.05;;
52031;SDS011;38044;45.148;39.604;2023-06-19T03:58:09;12.63;;;9.10;;
52031;SDS011;38044;45.148;39.604;2023-06-19T04:00:35;14.10;;;8.88;;
52031;SDS011;38044;45.148;39.604;2023-06-19T04:03:01;12.25;;;8.77;;
52031;SDS011;38044;45.148;39.604;2023-06-19T04:05:28;10.55;;;8.88;;
52031;SDS011;38044;45.148;39.604;2023-06-19T04:07:53;11.50;;;8.68;;
52031;SDS011;38044;45.148;39.604;2023-06-19T04:10:19;9.40;;;8.32;;
52031;SDS011;38044;45.148;39.604;2023-06-19T04:12:46;13.88;;;8.27;;
52031;SDS011;38044;45.148;39.604;2023-06-19T04:15:13;10.18;;;7.95;;
52031;SDS011;38044;45.148;39.604;2023-06-19T04:17:39;15.10;;;7.93;;
52031;SDS011;38044;45.148;39.604;2023-06-19T04:20:05;11.15;;;7.70;;
52031;SDS011;38044;45.148;39.604;2023-06-19T04:22:40;10.55;;;7.40;;
52031;SDS011;38044;45.148;39.604;2023-06-19T04:25:07;10.73;;;7.55;;
52031;SDS011;38044;45.148;39.604;2023-06-19T04:27:35;8.63;;;6.93;;
52031;SDS011;38044;45.148;39.604;2023-06-19T04:30:02;9.77;;;7.25;;
52031;SDS011;38044;45.148;39.604;2023-06-19T04:32:29;9.77;;;7.00;;
52031;SDS011;38044;45.148;39.604;2023-06-19T04:34:55;10.65;;;7.80;;
52031;SDS011;38044;45.148;39.604;2023-06-19T04:37:22;10.07;;;6.85;;
52031;SDS011;38044;45.148;39.604;2023-06-19T04:39:48;9.05;;;6.88;;
52031;SDS011;38044;45.148;39.604;2023-06-19T04:42:16;9.82;;;6.22;;
52031;SDS011;38044;45.148;39.604;2023-06-19T04:44:48;7.80;;;6.53;;
52031;SDS011;38044;45.148;39.604;2023-06-19T04:47:19;13.73;;;7.13;;
52031;SDS011;38044;45.148;39.604;2023-06-19T04:49:47;20.27;;;14.48;;
52031;SDS011;38044;45.148;39.604;2023-06-19T04:52:13;13.48;;;9.13;;
52031;SDS011;38044;45.148;39.604;2023-06-19T04:54:38;13.13;;;8.30;;
52031;SDS011;38044;45.148;39.604;2023-06-19T04:57:04;12.67;;;9.90;;
52031;SDS011;38044;45.148;39.604;2023-06-19T04:59:31;10.90;;;8.25;;
52031;SDS011;38044;45.148;39.604;2023-06-19T05:01:58;9.03;;;5.20;;
52031;SDS011;38044;45.148;39.604;2023-06-19T05:04:24;9.57;;;6.40;;
52031;SDS011;38044;45.148;39.604;2023-06-19T05:06:50;13.85;;;6.55;;
52031;SDS011;38044;45.148;39.604;2023-06-19T05:09:16;8.95;;;6.05;;
52031;SDS011;38044;45.148;39.604;2023-06-19T05:11:42;10.50;;;6.40;;
52031;SDS011;38044;45.148;39.604;2023-06-19T05:14:09;8.02;;;5.70;;
52031;SDS011;38044;45.148;39.604;2023-06-19T05:16:34;8.27;;;5.60;;
52031;SDS011;38044;45.148;39.604;2023-06-19T05:19:00;6.83;;;5.27;;
52031;SDS011;38044;45.148;39.604;2023-06-19T05:21:26;8.23;;;5.40;;
52031;SDS011;38044;45.148;39.604;2023-06-19T05:23:52;8.73;;;5.47;;
52031;SDS011;38044;45.148;39.604;2023-06-19T05:26:19;6.75;;;5.60;;
52031;SDS011;38044;45.148;39.604;2023-06-19T05:28:45;10.38;;;6.38;;
52031;SDS011;38044;45.148;39.604;2023-06-19T05:31:11;8.73;;;6.93;;
52031;SDS011;38044;45.148;39.604;2023-06-19T05:33:37;8.40;;;6.00;;
52031;SDS011;38044;45.148;39.604;2023-06-19T05:36:03;7.97;;;6.07;;
52031;SDS011;38044;45.148;39.604;2023-06-19T05:38:29;9.70;;;5.95;;
52031;SDS011;38044;45.148;39.604;2023-06-19T05:40:56;8.23;;;4.90;;
52031;SDS011;38044;45.148;39.604;2023-06-19T05:43:22;5.80;;;5.00;;
52031;SDS011;38044;45.148;39.604;2023-06-19T05:45:49;9.73;;;5.70;;
52031;SDS011;38044;45.148;39.604;2023-06-19T05:48:15;5.43;;;3.75;;
52031;SDS011;38044;45.148;39.604;2023-06-19T05:50:41;7.97;;;4.20;;
52031;SDS011;38044;45.148;39.604;2023-06-19T05:53:07;9.40;;;4.15;;
52031;SDS011;38044;45.148;39.604;2023-06-19T05:55:33;9.65;;;5.13;;
52031;SDS011;38044;45.148;39.604;2023-06-19T05:57:59;7.80;;;5.60;;
52031;SDS011;38044;45.148;39.604;2023-06-19T06:00:25;8.10;;;4.97;;
52031;SDS011;38044;45.148;39.604;2023-06-19T06:02:52;21.95;;;8.25;;
52031;SDS011;38044;45.148;39.604;2023-06-19T06:05:18;15.13;;;8.00;;
52031;SDS011;38044;45.148;39.604;2023-06-19T06:07:45;22.63;;;5.43;;
52031;SDS011;38044;45.148;39.604;2023-06-19T06:10:11;33.20;;;9.45;;
52031;SDS011;38044;45.148;39.604;2023-06-19T06:12:37;13.52;;;6.32;;
52031;SDS011;38044;45.148;39.604;2023-06-19T06:15:04;13.13;;;5.88;;
52031;SDS011;38044;45.148;39.604;2023-06-19T06:17:30;14.25;;;5.32;;
52031;SDS011;38044;45.148;39.604;2023-06-19T06:19:56;9.70;;;5.33;;
52031;SDS011;38044;45.148;39.604;2023-06-19T06:22:22;6.07;;;4.25;;
52031;SDS011;38044;45.148;39.604;2023-06-19T06:24:48;7.80;;;4.35;;
52031;SDS011;38044;45.148;39.604;2023-06-19T06:27:14;8.17;;;4.13;;
52031;SDS011;38044;45.148;39.604;2023-06-19T06:29:40;6.80;;;3.78;;
52031;SDS011;38044;45.148;39.604;2023-06-19T06:32:06;12.27;;;6.13;;
52031;SDS011;38044;45.148;39.604;2023-06-19T06:34:36;24.27;;;7.85;;
52031;SDS011;38044;45.148;39.604;2023-06-19T06:37:01;10.25;;;4.10;;
52031;SDS011;38044;45.148;39.604;2023-06-19T06:39:27;7.55;;;4.30;;
52031;SDS011;38044;45.148;39.604;2023-06-19T06:41:53;6.70;;;3.90;;
52031;SDS011;38044;45.148;39.604;2023-06-19T06:44:19;9.15;;;4.10;;
52031;SDS011;38044;45.148;39.604;2023-06-19T06:46:45;7.50;;;4.13;;
52031;SDS011;38044;45.148;39.604;2023-06-19T06:49:11;11.57;;;4.45;;
52031;SDS011;38044;45.148;39.604;2023-06-19T06:51:37;8.27;;;4.38;;
52031;SDS011;38044;45.148;39.604;2023-06-19T06:54:03;8.07;;;4.60;;
52031;SDS011;38044;45.148;39.604;2023-06-19T06:56:29;9.90;;;4.85;;
52031;SDS011;38044;45.148;39.604;2023-06-19T06:58:55;7.87;;;4.57;;
52031;SDS011;38044;45.148;39.604;2023-06-19T07:01:21;8.02;;;4.55;;
52031;SDS011;38044;45.148;39.604;2023-06-19T07:03:47;7.23;;;3.93;;
52031;SDS011;38044;45.148;39.604;2023-06-19T07:06:12;9.57;;;4.53;;
52031;SDS011;38044;45.148;39.604;2023-06-19T07:08:38;9.48;;;4.20;;
52031;SDS011;38044;45.148;39.604;2023-06-19T07:11:08;9.33;;;4.77;;
52031;SDS011;38044;45.148;39.604;2023-06-19T07:13:34;5.43;;;3.80;;
52031;SDS011;38044;45.148;39.604;2023-06-19T07:16:00;7.05;;;4.28;;
52031;SDS011;38044;45.148;39.604;2023-06-19T07:18:26;6.97;;;4.30;;
52031;SDS011;38044;45.148;39.604;2023-06-19T07:20:53;14.53;;;5.07;;
52031;SDS011;38044;45.148;39.604;2023-06-19T07:23:19;28.75;;;7.43;;
52031;SDS011;38044;45.148;39.604;2023-06-19T07:25:47;8.93;;;3.90;;
52031;SDS011;38044;45.148;39.604;2023-06-19T07:28:14;5.45;;;3.80;;
52031;SDS011;38044;45.148;39.604;2023-06-19T07:30:40;7.37;;;3.80;;
52031;SDS011;38044;45.148;39.604;2023-06-19T07:33:06;8.57;;;3.72;;
52031;SDS011;38044;45.148;39.604;2023-06-19T07:35:32;7.05;;;3.58;;
52031;SDS011;38044;45.148;39.604;2023-06-19T07:37:58;6.80;;;3.40;;
52031;SDS011;38044;45.148;39.604;2023-06-19T07:40:23;8.90;;;4.00;;
52031;SDS011;38044;45.148;39.604;2023-06-19T07:42:49;10.23;;;4.13;;
52031;SDS011;38044;45.148;39.604;2023-06-19T07:45:15;9.23;;;4.20;;
52031;SDS011;38044;45.148;39.604;2023-06-19T07:47:41;6.63;;;3.80;;
52031;SDS011;38044;45.148;39.604;2023-06-19T07:50:07;6.82;;;3.72;;
52031;SDS011;38044;45.148;39.604;2023-06-19T07:52:33;7.95;;;4.00;;
52031;SDS011;38044;45.148;39.604;2023-06-19T07:54:59;6.30;;;3.22;;
52031;SDS011;38044;45.148;39.604;2023-06-19T07:57:26;26.92;;;5.25;;
52031;SDS011;38044;45.148;39.604;2023-06-19T07:59:52;7.30;;;3.70;;
52031;SDS011;38044;45.148;39.604;2023-06-19T08:02:19;5.90;;;3.47;;
52031;SDS011;38044;45.148;39.604;2023-06-19T08:04:45;7.78;;;3.60;;
52031;SDS011;38044;45.148;39.604;2023-06-19T08:07:12;7.60;;;3.67;;
52031;SDS011;38044;45.148;39.604;2023-06-19T08:09:37;6.68;;;3.80;;
52031;SDS011;38044;45.148;39.604;2023-06-19T08:12:03;10.10;;;4.37;;
52031;SDS011;38044;45.148;39.604;2023-06-19T08:14:29;6.57;;;4.10;;
52031;SDS011;38044;45.148;39.604;2023-06-19T08:16:55;7.67;;;3.90;;
52031;SDS011;38044;45.148;39.604;2023-06-19T08:19:21;8.90;;;3.97;;
52031;SDS011;38044;45.148;39.604;2023-06-19T08:21:47;24.38;;;5.35;;
52031;SDS011;38044;45.148;39.604;2023-06-19T08:24:13;8.05;;;3.85;;
52031;SDS011;38044;45.148;39.604;2023-06-19T08:26:39;6.50;;;3.80;;
52031;SDS011;38044;45.148;39.604;2023-06-19T08:29:04;8.27;;;4.10;;
52031;SDS011;38044;45.148;39.604;2023-06-19T08:31:30;7.05;;;3.92;;
52031;SDS011;38044;45.148;39.604;2023-06-19T08:33:56;13.30;;;4.40;;
52031;SDS011;38044;45.148;39.604;2023-06-19T08:36:22;8.75;;;4.50;;
52031;SDS011;38044;45.148;39.604;2023-06-19T08:38:48;9.13;;;4.13;;
52031;SDS011;38044;45.148;39.604;2023-06-19T08:41:18;16.83;;;4.85;;
52031;SDS011;38044;45.148;39.604;2023-06-19T08:43:45;16.30;;;4.70;;
52031;SDS011;38044;45.148;39.604;2023-06-19T08:46:14;5.90;;;4.40;;
52031;SDS011;38044;45.148;39.604;2023-06-19T08:48:41;7.63;;;4.32;;
52031;SDS011;38044;45.148;39.604;2023-06-19T08:51:07;6.82;;;4.30;;
52031;SDS011;38044;45.148;39.604;2023-06-19T08:53:35;7.30;;;4.63;;
52031;SDS011;38044;45.148;39.604;2023-06-19T08:56:08;7.78;;;4.57;;
52031;SDS011;38044;45.148;39.604;2023-06-19T08:58:34;8.53;;;4.50;;
52031;SDS011;38044;45.148;39.604;2023-06-19T09:03:45;6.65;;;4.38;;
52031;SDS011;38044;45.148;39.604;2023-06-19T09:06:15;5.13;;;4.03;;
52031;SDS011;38044;45.148;39.604;2023-06-19T09:08:41;13.03;;;4.80;;
52031;SDS011;38044;45.148;39.604;2023-06-19T09:11:09;9.77;;;4.53;;
52031;SDS011;38044;45.148;39.604;2023-06-19T09:13:36;53.88;;;7.82;;
52031;SDS011;38044;45.148;39.604;2023-06-19T09:16:05;6.65;;;4.18;;
52031;SDS011;38044;45.148;39.604;2023-06-19T09:18:41;9.95;;;5.70;;
52031;SDS011;38044;45.148;39.604;2023-06-19T09:21:14;9.75;;;5.05;;
52031;SDS011;38044;45.148;39.604;2023-06-19T09:26:31;7.25;;;4.70;;
52031;SDS011;38044;45.148;39.604;2023-06-19T09:29:16;8.48;;;4.90;;
52031;SDS011;38044;45.148;39.604;2023-06-19T09:31:43;7.90;;;5.47;;
52031;SDS011;38044;45.148;39.604;2023-06-19T09:34:09;8.10;;;5.53;;
52031;SDS011;38044;45.148;39.604;2023-06-19T09:36:53;11.20;;;5.07;;
52031;SDS011;38044;45.148;39.604;2023-06-19T09:39:37;8.38;;;4.93;;
52031;SDS011;38044;45.148;39.604;2023-06-19T09:42:06;8.37;;;4.17;;
52031;SDS011;38044;45.148;39.604;2023-06-19T09:44:39;13.10;;;5.53;;
52031;SDS011;38044;45.148;39.604;2023-06-19T09:47:25;12.35;;;5.72;;
52031;SDS011;38044;45.148;39.604;2023-06-19T09:49:56;10.98;;;5.97;;
52031;SDS011;38044;45.148;39.604;2023-06-19T09:52:22;15.00;;;7.43;;
52031;SDS011;38044;45.148;39.604;2023-06-19T09:54:50;18.10;;;7.35;;
52031;SDS011;38044;45.148;39.604;2023-06-19T09:57:38;9.35;;;6.40;;
52031;SDS011;38044;45.148;39.604;2023-06-19T10:02:56;10.73;;;7.32;;
52031;SDS011;38044;45.148;39.604;2023-06-19T10:08:08;10.85;;;6.88;;
52031;SDS011;38044;45.148;39.604;2023-06-19T10:10:36;11.05;;;7.05;;
52031;SDS011;38044;45.148;39.604;2023-06-19T10:13:15;10.60;;;7.13;;
52031;SDS011;38044;45.148;39.604;2023-06-19T10:15:42;12.97;;;7.20;;
52031;SDS011;38044;45.148;39.604;2023-06-19T10:18:18;13.05;;;7.93;;
52031;SDS011;38044;45.148;39.604;2023-06-19T10:20:45;12.75;;;7.95;;
52031;SDS011;38044;45.148;39.604;2023-06-19T10:23:12;13.88;;;8.40;;
52031;SDS011;38044;45.148;39.604;2023-06-19T10:25:57;13.13;;;8.15;;
52031;SDS011;38044;45.148;39.604;2023-06-19T10:31:12;13.83;;;8.00;;
52031;SDS011;38044;45.148;39.604;2023-06-19T10:36:24;12.97;;;7.57;;
52031;SDS011;38044;45.148;39.604;2023-06-19T10:38:53;15.07;;;7.50;;
52031;SDS011;38044;45.148;39.604;2023-06-19T10:41:20;11.50;;;7.10;;
52031;SDS011;38044;45.148;39.604;2023-06-19T10:44:07;9.77;;;6.53;;
52031;SDS011;38044;45.148;39.604;2023-06-19T10:49:25;9.27;;;5.95;;
52031;SDS011;38044;45.148;39.604;2023-06-19T10:51:51;10.00;;;5.95;;
52031;SDS011;38044;45.148;39.604;2023-06-19T10:54:19;10.02;;;5.75;;
52031;SDS011;38044;45.148;39.604;2023-06-19T10:59:30;9.32;;;5.55;;
52031;SDS011;38044;45.148;39.604;2023-06-19T11:01:55;8.75;;;5.50;;
52031;SDS011;38044;45.148;39.604;2023-06-19T11:04:22;8.35;;;5.57;;
52031;SDS011;38044;45.148;39.604;2023-06-19T11:09:33;7.82;;;5.22;;
52031;SDS011;38044;45.148;39.604;2023-06-19T11:12:20;11.68;;;7.63;;
52031;SDS011;38044;45.148;39.604;2023-06-19T11:14:47;19.02;;;10.95;;
52031;SDS011;38044;45.148;39.604;2023-06-19T11:17:32;22.10;;;12.23;;
52031;SDS011;38044;45.148;39.604;2023-06-19T11:19:58;22.10;;;13.10;;
52031;SDS011;38044;45.148;39.604;2023-06-19T11:22:35;23.37;;;12.40;;
52031;SDS011;38044;45.148;39.604;2023-06-19T11:25:03;19.60;;;12.07;;
52031;SDS011;38044;45.148;39.604;2023-06-19T11:27:30;20.00;;;12.17;;
52031;SDS011;38044;45.148;39.604;2023-06-19T11:29:56;19.13;;;11.02;;
52031;SDS011;38044;45.148;39.604;2023-06-19T11:32:29;16.75;;;10.60;;
52031;SDS011;38044;45.148;39.604;2023-06-19T11:34:56;13.87;;;8.90;;
52031;SDS011;38044;45.148;39.604;2023-06-19T11:37:23;11.20;;;7.30;;
52031;SDS011;38044;45.148;39.604;2023-06-19T11:39:49;10.93;;;6.60;;
52031;SDS011;38044;45.148;39.604;2023-06-19T11:42:17;10.73;;;6.05;;
52031;SDS011;38044;45.148;39.604;2023-06-19T11:44:55;11.27;;;6.30;;
52031;SDS011;38044;45.148;39.604;2023-06-19T11:50:08;8.30;;;5.53;;
52031;SDS011;38044;45.148;39.604;2023-06-19T11:52:34;9.70;;;6.13;;
52031;SDS011;38044;45.148;39.604;2023-06-19T11:55:00;9.07;;;5.60;;
52031;SDS011;38044;45.148;39.604;2023-06-19T11:57:45;7.95;;;5.85;;
52031;SDS011;38044;45.148;39.604;2023-06-19T12:00:15;7.78;;;5.95;;
52031;SDS011;38044;45.148;39.604;2023-06-19T12:05:27;8.98;;;5.45;;
52031;SDS011;38044;45.148;39.604;2023-06-19T12:07:53;8.30;;;5.50;;
52031;SDS011;38044;45.148;39.604;2023-06-19T12:10:18;7.57;;;5.90;;
52031;SDS011;38044;45.148;39.604;2023-06-19T12:15:29;8.50;;;6.20;;
52031;SDS011;38044;45.148;39.604;2023-06-19T12:17:55;7.72;;;5.63;;
52031;SDS011;38044;45.148;39.604;2023-06-19T12:20:23;8.38;;;4.95;;
52031;SDS011;38044;45.148;39.604;2023-06-19T12:22:49;8.05;;;5.80;;
52031;SDS011;38044;45.148;39.604;2023-06-19T12:25:15;7.28;;;4.75;;
52031;SDS011;38044;45.148;39.604;2023-06-19T12:27:41;7.33;;;5.33;;
52031;SDS011;38044;45.148;39.604;2023-06-19T12:30:07;9.82;;;5.75;;
52031;SDS011;38044;45.148;39.604;2023-06-19T12:32:33;11.00;;;5.63;;
52031;SDS011;38044;45.148;39.604;2023-06-19T12:34:59;10.07;;;6.13;;
52031;SDS011;38044;45.148;39.604;2023-06-19T12:37:27;7.50;;;5.85;;
52031;SDS011;38044;45.148;39.604;2023-06-19T12:39:53;8.77;;;5.47;;
52031;SDS011;38044;45.148;39.604;2023-06-19T12:42:19;8.83;;;5.10;;
52031;SDS011;38044;45.148;39.604;2023-06-19T12:44:45;6.88;;;4.88;;
52031;SDS011;38044;45.148;39.604;2023-06-19T12:47:11;8.35;;;6.00;;
52031;SDS011;38044;45.148;39.604;2023-06-19T12:49:37;15.60;;;6.20;;
52031;SDS011;38044;45.148;39.604;2023-06-19T12:52:03;20.20;;;7.43;;
52031;SDS011;38044;45.148;39.604;2023-06-19T12:54:29;38.03;;;11.30;;
52031;SDS011;38044;45.148;39.604;2023-06-19T12:56:55;30.80;;;11.10;;
52031;SDS011;38044;45.148;39.604;2023-06-19T12:59:21;18.50;;;10.83;;
52031;SDS011;38044;45.148;39.604;2023-06-19T13:01:47;31.42;;;13.10;;
52031;SDS011;38044;45.148;39.604;2023-06-19T13:04:13;56.97;;;23.10;;
52031;SDS011;38044;45.148;39.604;2023-06-19T13:06:39;26.30;;;14.15;;
52031;SDS011;38044;45.148;39.604;2023-06-19T13:09:05;24.63;;;12.17;;
52031;SDS011;38044;45.148;39.604;2023-06-19T13:11:32;22.70;;;14.20;;
52031;SDS011;38044;45.148;39.604;2023-06-19T13:14:01;15.98;;;10.55;;
52031;SDS011;38044;45.148;39.604;2023-06-19T13:16:27;15.80;;;11.02;;
52031;SDS011;38044;45.148;39.604;2023-06-19T13:18:53;15.43;;;12.13;;
52031;SDS011;38044;45.148;39.604;2023-06-19T13:21:19;15.13;;;10.20;;
52031;SDS011;38044;45.148;39.604;2023-06-19T13:23:45;14.32;;;11.95;;
52031;SDS011;38044;45.148;39.604;2023-06-19T13:26:11;13.50;;;10.55;;
52031;SDS011;38044;45.148;39.604;2023-06-19T13:28:37;13.10;;;10.27;;
52031;SDS011;38044;45.148;39.604;2023-06-19T13:31:03;15.88;;;10.77;;
52031;SDS011;38044;45.148;39.604;2023-06-19T13:33:30;17.60;;;11.67;;
52031;SDS011;38044;45.148;39.604;2023-06-19T13:35:56;19.45;;;12.32;;
52031;SDS011;38044;45.148;39.604;2023-06-19T13:38:22;14.32;;;12.75;;
52031;SDS011;38044;45.148;39.604;2023-06-19T13:40:48;14.67;;;10.27;;
52031;SDS011;38044;45.148;39.604;2023-06-19T13:43:14;11.07;;;7.40;;
52031;SDS011;38044;45.148;39.604;2023-06-19T13:45:40;10.52;;;7.97;;
52031;SDS011;38044;45.148;39.604;2023-06-19T13:48:07;12.52;;;7.53;;
52031;SDS011;38044;45.148;39.604;2023-06-19T13:50:32;9.70;;;7.00;;
52031;SDS011;38044;45.148;39.604;2023-06-19T13:52:59;10.25;;;6.90;;
52031;SDS011;38044;45.148;39.604;2023-06-19T13:55:26;9.27;;;7.07;;
52031;SDS011;38044;45.148;39.604;2023-06-19T13:57:52;10.02;;;7.32;;
52031;SDS011;38044;45.148;39.604;2023-06-19T14:00:18;10.15;;;7.65;;
52031;SDS011;38044;45.148;39.604;2023-06-19T14:02:44;10.40;;;8.00;;
52031;SDS011;38044;45.148;39.604;2023-06-19T14:05:10;11.18;;;7.50;;
52031;SDS011;38044;45.148;39.604;2023-06-19T14:07:39;12.07;;;7.90;;
52031;SDS011;38044;45.148;39.604;2023-06-19T14:10:06;19.07;;;9.73;;
52031;SDS011;38044;45.148;39.604;2023-06-19T14:12:32;19.83;;;9.50;;
52031;SDS011;38044;45.148;39.604;2023-06-19T14:14:59;12.67;;;7.50;;
52031;SDS011;38044;45.148;39.604;2023-06-19T14:17:25;19.27;;;10.70;;
52031;SDS011;38044;45.148;39.604;2023-06-19T14:19:51;10.07;;;6.28;;
52031;SDS011;38044;45.148;39.604;2023-06-19T14:22:17;12.60;;;7.18;;
52031;SDS011;38044;45.148;39.604;2023-06-19T14:24:44;11.18;;;6.32;;
52031;SDS011;38044;45.148;39.604;2023-06-19T14:27:10;9.95;;;6.20;;
52031;SDS011;38044;45.148;39.604;2023-06-19T14:29:36;8.82;;;5.65;;
52031;SDS011;38044;45.148;39.604;2023-06-19T14:32:01;5.87;;;5.00;;
52031;SDS011;38044;45.148;39.604;2023-06-19T14:34:28;7.25;;;5.40;;
52031;SDS011;38044;45.148;39.604;2023-06-19T14:36:54;9.00;;;5.03;;
52031;SDS011;38044;45.148;39.604;2023-06-19T14:39:20;9.23;;;5.20;;
52031;SDS011;38044;45.148;39.604;2023-06-19T14:41:46;6.97;;;4.60;;
52031;SDS011;38044;45.148;39.604;2023-06-19T14:44:11;8.37;;;4.63;;
52031;SDS011;38044;45.148;39.604;2023-06-19T14:46:37;6.93;;;4.40;;
52031;SDS011;38044;45.148;39.604;2023-06-19T14:49:07;8.60;;;4.23;;
52031;SDS011;38044;45.148;39.604;2023-06-19T14:51:35;5.80;;;4.18;;
52031;SDS011;38044;45.148;39.604;2023-06-19T14:54:01;6.30;;;4.13;;
52031;SDS011;38044;45.148;39.604;2023-06-19T14:56:27;6.70;;;3.80;;